Terminal Aerodrome Forecast
Issued by NWS

Home | Current Version | Previous Version | Text Only | Print | Product List | Glossary On
Versions: 1 2 3 4 5 6 7 8 9 10 11 12 13 14 15 16 17 18 19 20 21 22 23 24 25 26 27 28 29 30 31 32 33 34 35 36
388
FTUS41 KBOX 231132 AAA
TAFACK
TAF AMD
KACK 231132Z 2312/2412 06023G33KT P6SM -DZ VCSH OVC030
     FM231400 06023G33KT 6SM -DZ VCSH OVC020
     FM231700 07025G36KT P6SM -SHRA OVC015
     FM232200 07030G47KT 6SM -SHRA OVC015 WS020/08050KT
     FM240300 07034G52KT 1 1/2SM -RA BR OVC008 WS020/08060KT
     FM241100 10023KT 1SM RA OVC003 WS020/11055KT=

USA.gov is the U.S. government's official web portal to all federal, state and local government web resources and services.